Akeno Air Base, Japan

3:05 PM JST on September 21, 2014 (GMT +0900)
Nagoya / Chubu | Change Station
CLOSE
Current Station
Airport
Location: Nagoya / Chubu,
Elevation: 16 ft
Nearby Weather Stations

Elev 16 ft 34.86 °N, 136.81 °E | Updated 35 minutes ago

Partly Cloudy
Partly Cloudy
75 °F
Feels Like 75 °F
N
10
Wind Variable Wind from South

Today
High -- | Low -- °F
--% Chance of Precip.
Yesterday
High -- | Low -- °F
Precip. -- in
5:40 AM 5:52 PM
Waning Crescent, 8% visible
Pressure 29.95 in
Visibility 6.2 miles
Clouds Few 2500 ft
Dew Point 64 °F
Humidity 69%
Rainfall 0.00 in
Snow Depth Not available.
UV 5 out of 12
Pollen Not available.
Air Quality Not available.
Flu Activity Not available.
METAR RJGG 210530Z 19009KT 9999 FEW025 BKN/// 24/18 Q1014 NOSIG

More Conditions Fewer Conditions

Pressure 29.95 in
Visibility 6.2 miles
Clouds Few 2500 ft
Dew Point 64 °F
Humidity 69%
Rainfall 0.00 in
Snow Depth Not available.
UV 5 out of 12
Pollen Not available.
Air Quality Not available.
Flu Activity Not available.
METAR RJGG 210530Z 19009KT 9999 FEW025 BKN/// 24/18 Q1014 NOSIG

More Conditions Fewer Conditions

10-Day Weather Forecast

Almanac

Astronomy

Sep. 21, 2014 Rise Set
Actual Time 5:40 AM JST 5:52 PM JST
Civil Twilight 5:15 AM JST 6:17 PM JST
Nautical Twilight 4:45 AM JST 6:46 PM JST
Astronomical Twilight 4:15 AM JST 7:16 PM JST
Moon 2:45 AM JST 4:03 PM JST
Length of Visible Light 13h 02m
Length of Day
12h 12m
Tomorrow will be 2m 8s shorter.
Waning Crescent, 8% of the Moon is Illuminated
Today
Waning Crescent
Sep 24
New
Oct 1
First Quarter
Oct 8
Full
Oct 15
Last Quarter

Yesterday's Extremes

Country Highs Country Lows

Community

WunderPhotos

Upload Photos

1,755,098 photos uploaded!

Nearby

Snow Depth

Not available.

Earthquake Activity

City Distance Mag. Time & Date
No recent earthquake activity has been reported nearby.
Minimum magnitude displayed is 2.5.

Coastal Water Temperatures

Place Temperature
No Stations Reporting

Nearby Weather Stations